Time;durP1;ratioP1;P1;durP2;ratioP2;P2;SDS_P1;SDS_P2;PMS_P1;PMS_P2;Temp;Humidity;BMP_temperature;BMP_pressure;BME280_temperature;BME280_humidity;BME280_pressure;Samples;Min_cycle;Max_cycle;Signal;HPM_P1;HPM_P2
2023/12/09 00:01:20;;;;;;;2.30;1.90;;;10.40;99.90;;;;;;5030512;28;20029;-43
2023/12/09 00:03:45;;;;;;;3.42;2.25;;;10.40;99.90;;;;;;5033158;28;20057;-45
2023/12/09 00:06:11;;;;;;;3.88;2.50;;;10.40;99.90;;;;;;5035584;28;20026;-44
2023/12/09 00:08:37;;;;;;;2.95;2.13;;;10.40;99.90;;;;;;5034885;28;20033;-44
2023/12/09 00:11:03;;;;;;;3.20;2.40;;;10.40;99.90;;;;;;5034117;28;20021;-43
2023/12/09 00:13:28;;;;;;;3.05;2.10;;;10.40;99.90;;;;;;5034544;28;20403;-45
2023/12/09 00:15:54;;;;;;;3.20;2.25;;;10.40;99.90;;;;;;5034583;28;20117;-44
2023/12/09 00:18:20;;;;;;;2.40;2.10;;;10.40;99.90;;;;;;5034653;28;20479;-44
2023/12/09 00:20:45;;;;;;;3.05;2.30;;;10.40;99.90;;;;;;5033999;28;20091;-44
2023/12/09 00:23:11;;;;;;;3.28;2.22;;;10.40;99.90;;;;;;5034916;28;20044;-44
2023/12/09 00:25:37;;;;;;;3.47;2.50;;;10.40;99.90;;;;;;5035516;28;20022;-44
2023/12/09 00:28:04;;;;;;;4.03;2.47;;;10.40;99.90;;;;;;5033906;28;20489;-43
2023/12/09 00:30:29;;;;;;;3.85;2.45;;;10.40;99.90;;;;;;5034068;28;20398;-44
2023/12/09 00:32:55;;;;;;;4.07;2.63;;;10.30;99.90;;;;;;5034084;28;20022;-44
2023/12/09 00:35:21;;;;;;;4.75;2.55;;;10.40;99.90;;;;;;5033875;28;20026;-43
2023/12/09 00:37:47;;;;;;;5.00;2.35;;;10.40;99.90;;;;;;5034981;28;20017;-42
2023/12/09 00:40:12;;;;;;;4.85;2.30;;;10.40;99.90;;;;;;5033955;28;20498;-44
2023/12/09 00:42:38;;;;;;;2.92;2.20;;;10.40;99.90;;;;;;5033725;28;20402;-44
2023/12/09 00:45:05;;;;;;;2.50;2.17;;;10.40;99.90;;;;;;5033656;28;20498;-44
2023/12/09 00:47:30;;;;;;;3.10;2.10;;;10.40;99.90;;;;;;5034192;28;20044;-44
2023/12/09 00:49:56;;;;;;;2.92;2.17;;;10.40;99.90;;;;;;5033888;28;20030;-44
2023/12/09 00:52:22;;;;;;;3.53;2.25;;;10.40;99.90;;;;;;5033906;28;20027;-44
2023/12/09 00:54:47;;;;;;;2.65;2.10;;;10.40;99.90;;;;;;5033888;28;20022;-44
2023/12/09 00:57:13;;;;;;;3.92;2.20;;;10.40;99.90;;;;;;5033245;28;20383;-44
2023/12/09 00:59:38;;;;;;;3.13;2.20;;;10.40;99.90;;;;;;5033509;28;20113;-44
2023/12/09 01:02:04;;;;;;;2.63;2.10;;;10.40;99.90;;;;;;5033742;28;20372;-44
2023/12/09 01:04:30;;;;;;;3.50;2.47;;;10.40;99.90;;;;;;5034207;28;20570;-45
2023/12/09 01:06:56;;;;;;;2.83;2.20;;;10.30;99.90;;;;;;5033492;28;20068;-43
2023/12/09 01:09:22;;;;;;;3.40;2.28;;;10.40;99.90;;;;;;5033054;28;20036;-45
2023/12/09 01:11:47;;;;;;;3.55;2.33;;;10.40;99.90;;;;;;5033141;28;20025;-44
2023/12/09 01:14:13;;;;;;;3.97;2.45;;;10.40;99.90;;;;;;5032741;28;20029;-45
2023/12/09 01:16:39;;;;;;;4.20;2.55;;;10.40;99.90;;;;;;5033112;28;20480;-44
2023/12/09 01:19:04;;;;;;;2.80;2.28;;;10.40;99.90;;;;;;5033782;28;20029;-45
2023/12/09 01:21:30;;;;;;;2.85;1.90;;;10.30;99.90;;;;;;5032773;28;20030;-44
2023/12/09 01:23:55;;;;;;;3.08;2.25;;;10.40;99.90;;;;;;5034067;28;20029;-44
2023/12/09 01:26:21;;;;;;;3.83;2.53;;;10.30;99.90;;;;;;5034150;28;20570;-43
2023/12/09 01:28:47;;;;;;;2.55;1.92;;;10.30;99.90;;;;;;5033791;28;20021;-44
2023/12/09 01:31:12;;;;;;;3.35;2.60;;;10.40;99.90;;;;;;5032830;28;20036;-44
2023/12/09 01:33:38;;;;;;;2.63;2.22;;;10.40;99.90;;;;;;5034107;28;20025;-43
2023/12/09 01:36:04;;;;;;;2.65;2.00;;;10.40;99.90;;;;;;5032895;28;20060;-44
2023/12/09 01:38:30;;;;;;;3.45;2.05;;;10.40;99.90;;;;;;5033214;28;20029;-44
2023/12/09 01:40:56;;;;;;;3.40;2.38;;;10.40;99.90;;;;;;5032235;28;20502;-44
2023/12/09 01:43:23;;;;;;;3.33;2.33;;;10.40;99.90;;;;;;5032705;28;20037;-44
2023/12/09 01:45:52;;;;;;;3.63;2.10;;;10.40;99.90;;;;;;5032457;28;20037;-44
2023/12/09 01:48:18;;;;;;;2.50;2.00;;;10.30;99.90;;;;;;5032317;28;20049;-44
2023/12/09 01:50:44;;;;;;;3.40;2.40;;;10.40;99.90;;;;;;5032219;28;20060;-44
2023/12/09 01:53:09;;;;;;;3.33;2.22;;;10.30;99.90;;;;;;5032406;28;20091;-44
2023/12/09 01:55:35;;;;;;;2.95;2.05;;;10.40;99.90;;;;;;5032231;28;20488;-44
2023/12/09 01:58:01;;;;;;;3.80;2.38;;;10.40;99.90;;;;;;5033300;28;20025;-45
2023/12/09 02:00:26;;;;;;;3.00;2.20;;;10.40;99.90;;;;;;5032808;28;20022;-44
2023/12/09 02:02:52;;;;;;;2.97;2.40;;;10.40;99.90;;;;;;5032149;28;20033;-44
2023/12/09 02:05:18;;;;;;;2.15;1.95;;;10.40;99.90;;;;;;5032061;28;20469;-44
2023/12/09 02:07:44;;;;;;;3.33;2.40;;;10.30;99.90;;;;;;5031911;28;20502;-44
2023/12/09 02:10:10;;;;;;;3.03;2.30;;;10.40;99.90;;;;;;5032348;28;20029;-44
2023/12/09 02:13:17;;;;;;;2.97;2.08;;;10.30;99.90;;;;;;5033054;28;20029;-44
2023/12/09 02:16:16;;;;;;;3.00;2.10;;;10.40;99.90;;;;;;5032191;28;20105;-44
2023/12/09 02:18:44;;;;;;;3.00;1.90;;;10.40;99.90;;;;;;5032622;28;20037;-45
2023/12/09 02:21:11;;;;;;;2.97;2.40;;;10.40;99.90;;;;;;5032058;28;20522;-45
2023/12/09 02:23:37;;;;;;;3.08;2.20;;;10.40;99.90;;;;;;5033044;28;20033;-44
2023/12/09 02:26:10;;;;;;;2.63;2.00;;;10.40;99.90;;;;;;5032821;28;20029;-44
2023/12/09 02:28:43;;;;;;;2.58;2.20;;;10.30;99.90;;;;;;5031683;28;20035;-43
2023/12/09 02:31:31;;;;;;;3.10;2.08;;;10.30;99.90;;;;;;5031564;28;20022;-43
2023/12/09 02:34:00;;;;;;;3.05;2.35;;;10.40;99.90;;;;;;5031799;28;20021;-44
2023/12/09 02:36:27;;;;;;;2.88;2.20;;;10.30;99.90;;;;;;5031794;28;20032;-44
2023/12/09 02:38:54;;;;;;;2.85;2.10;;;10.40;99.90;;;;;;5032125;28;20412;-44
2023/12/09 02:41:20;;;;;;;2.67;2.10;;;10.30;99.90;;;;;;5032030;28;20091;-44
2023/12/09 02:43:46;;;;;;;3.42;2.42;;;10.40;99.90;;;;;;5032582;28;20426;-44
2023/12/09 02:46:13;;;;;;;3.35;2.00;;;10.40;99.90;;;;;;5032175;28;20052;-44
2023/12/09 02:48:39;;;;;;;3.25;2.00;;;10.40;99.90;;;;;;5031445;28;20025;-44
2023/12/09 02:51:06;;;;;;;3.00;1.95;;;10.30;99.90;;;;;;5031413;28;20036;-44
2023/12/09 02:53:31;;;;;;;3.13;2.10;;;10.40;99.90;;;;;;5031406;28;20483;-44
2023/12/09 02:55:57;;;;;;;2.47;2.08;;;10.40;99.90;;;;;;5031375;28;20029;-44
2023/12/09 02:58:22;;;;;;;3.20;1.92;;;10.30;99.90;;;;;;5031630;28;20025;-43
2023/12/09 03:00:48;;;;;;;3.17;2.10;;;10.40;99.90;;;;;;5031647;28;20028;-44
2023/12/09 03:03:14;;;;;;;2.75;1.95;;;10.30;99.90;;;;;;5031311;28;20071;-45
2023/12/09 03:05:39;;;;;;;2.70;2.10;;;10.40;99.90;;;;;;5031350;28;20096;-43
2023/12/09 03:08:05;;;;;;;2.80;2.20;;;10.30;99.90;;;;;;5031154;28;20495;-44
2023/12/09 03:10:30;;;;;;;2.92;1.90;;;10.40;99.90;;;;;;5031824;28;20021;-44
2023/12/09 03:12:58;;;;;;;3.05;2.33;;;10.40;99.90;;;;;;5031208;28;20112;-43
2023/12/09 03:15:23;;;;;;;2.78;2.13;;;10.30;99.90;;;;;;5031559;28;20041;-44
2023/12/09 03:17:49;;;;;;;3.40;1.98;;;10.30;99.90;;;;;;5032403;28;20033;-44
2023/12/09 03:20:17;;;;;;;3.08;2.15;;;10.40;99.90;;;;;;5031780;28;20047;-45
2023/12/09 03:22:42;;;;;;;2.50;1.95;;;10.40;99.90;;;;;;5031946;28;20025;-44
2023/12/09 03:25:08;;;;;;;2.63;1.88;;;10.40;99.90;;;;;;5031734;28;20513;-43
2023/12/09 03:27:34;;;;;;;2.00;1.77;;;10.40;99.90;;;;;;5031186;28;20037;-44
2023/12/09 03:29:59;;;;;;;2.97;1.90;;;10.40;99.90;;;;;;5031431;28;20510;-45
2023/12/09 03:32:25;;;;;;;2.58;1.80;;;10.40;99.90;;;;;;5031326;28;20104;-44
2023/12/09 03:34:50;;;;;;;3.50;2.00;;;10.40;99.90;;;;;;5030854;28;20013;-43
2023/12/09 03:37:16;;;;;;;3.10;2.00;;;10.30;99.90;;;;;;5030821;28;20030;-44
2023/12/09 03:39:42;;;;;;;3.20;1.95;;;10.30;99.90;;;;;;5034609;28;20032;-44
2023/12/09 03:42:07;;;;;;;2.03;1.80;;;10.30;99.90;;;;;;5034761;28;20160;-43
2023/12/09 03:44:33;;;;;;;3.10;1.98;;;10.40;99.90;;;;;;5035544;28;20036;-45
2023/12/09 03:46:58;;;;;;;2.90;1.80;;;10.40;99.90;;;;;;5035090;28;20033;-44
2023/12/09 03:49:24;;;;;;;2.50;1.60;;;10.40;99.90;;;;;;5035511;28;20107;-44
2023/12/09 03:51:50;;;;;;;3.28;2.00;;;10.40;99.90;;;;;;5034819;28;20026;-44
2023/12/09 03:54:15;;;;;;;2.58;1.70;;;10.50;99.90;;;;;;5034765;28;20028;-44
2023/12/09 03:56:41;;;;;;;2.72;1.90;;;10.50;99.90;;;;;;5034694;28;20491;-44
2023/12/09 03:59:06;;;;;;;2.80;1.83;;;10.50;99.90;;;;;;5034387;28;20021;-44
2023/12/09 04:01:32;;;;;;;3.90;2.17;;;10.60;99.90;;;;;;5034380;28;20430;-44
2023/12/09 04:03:57;;;;;;;2.72;1.80;;;10.60;99.90;;;;;;5034615;28;20033;-44
2023/12/09 04:06:23;;;;;;;2.28;1.70;;;10.60;99.90;;;;;;5035537;28;20049;-43
2023/12/09 04:08:49;;;;;;;4.35;2.03;;;10.70;99.90;;;;;;5034672;28;20373;-45
2023/12/09 04:11:14;;;;;;;3.33;2.20;;;10.60;99.90;;;;;;5034172;28;20025;-44
2023/12/09 04:13:40;;;;;;;3.45;1.88;;;10.70;99.90;;;;;;5035704;28;20025;-44
2023/12/09 04:16:06;;;;;;;2.88;1.70;;;10.70;99.90;;;;;;5034849;28;20426;-44
2023/12/09 04:18:32;;;;;;;2.95;2.00;;;10.70;99.90;;;;;;5035509;28;20029;-43
2023/12/09 04:20:58;;;;;;;2.90;1.80;;;10.70;99.90;;;;;;5034676;28;20032;-44
2023/12/09 04:23:24;;;;;;;2.10;1.65;;;10.70;99.90;;;;;;5034637;28;20037;-44
2023/12/09 04:25:50;;;;;;;2.00;1.67;;;10.70;99.90;;;;;;5033975;28;20108;-44
2023/12/09 04:28:16;;;;;;;3.13;1.60;;;10.80;99.90;;;;;;5034044;28;20104;-44
2023/12/09 04:30:41;;;;;;;2.83;1.85;;;10.70;99.90;;;;;;5033822;28;20029;-44
2023/12/09 04:33:07;;;;;;;3.38;2.03;;;10.70;99.90;;;;;;5034385;28;20033;-44
2023/12/09 04:35:32;;;;;;;3.60;2.05;;;10.80;99.90;;;;;;5033759;28;20030;-44
2023/12/09 04:37:58;;;;;;;3.50;2.08;;;10.80;99.90;;;;;;5034038;28;20144;-44
2023/12/09 04:40:24;;;;;;;2.25;1.63;;;10.80;99.90;;;;;;5033669;28;20029;-44
2023/12/09 04:42:49;;;;;;;2.10;1.67;;;10.80;99.90;;;;;;5034365;28;20036;-44
2023/12/09 04:45:15;;;;;;;2.63;1.60;;;10.80;99.90;;;;;;5033606;28;20034;-44
2023/12/09 04:47:40;;;;;;;2.97;1.95;;;10.70;99.90;;;;;;5033644;28;20079;-44
2023/12/09 04:50:10;;;;;;;2.53;1.80;;;10.80;99.90;;;;;;5032978;28;20092;-44
2023/12/09 04:52:36;;;;;;;2.88;1.85;;;10.80;99.90;;;;;;5034010;28;20535;-44
2023/12/09 04:55:03;;;;;;;2.47;1.52;;;10.80;99.90;;;;;;5033461;28;20120;-44
2023/12/09 04:57:29;;;;;;;2.83;1.70;;;10.70;99.90;;;;;;5033813;28;20034;-44
2023/12/09 04:59:55;;;;;;;2.30;1.65;;;10.70;99.90;;;;;;5033350;28;20029;-44
2023/12/09 05:02:20;;;;;;;2.55;1.70;;;10.70;99.90;;;;;;5033963;28;20038;-44
2023/12/09 05:04:46;;;;;;;3.03;1.77;;;10.70;99.90;;;;;;5033286;28;20854;-44
2023/12/09 05:07:12;;;;;;;2.20;1.40;;;10.70;99.90;;;;;;5034143;28;20430;-44
2023/12/09 05:09:38;;;;;;;2.40;1.70;;;10.70;99.90;;;;;;5033761;28;20029;-44
2023/12/09 05:12:04;;;;;;;2.13;1.73;;;10.80;99.90;;;;;;5033956;28;20577;-44
2023/12/09 05:14:29;;;;;;;3.00;1.95;;;10.70;99.90;;;;;;5033175;28;20412;-44
2023/12/09 05:16:55;;;;;;;3.30;1.67;;;10.70;99.90;;;;;;5033373;28;20503;-44
2023/12/09 05:19:22;;;;;;;2.45;1.40;;;10.70;99.90;;;;;;5032933;28;20036;-44
2023/12/09 05:21:48;;;;;;;3.55;2.30;;;10.70;99.90;;;;;;5032855;28;20562;-43
2023/12/09 05:24:13;;;;;;;2.10;1.55;;;10.70;99.90;;;;;;5033264;28;20181;-44
2023/12/09 05:26:39;;;;;;;2.17;1.75;;;10.70;99.90;;;;;;5033728;28;20479;-44
2023/12/09 05:29:04;;;;;;;1.65;1.38;;;10.70;99.90;;;;;;5033318;28;20373;-44
2023/12/09 05:31:30;;;;;;;2.95;1.90;;;10.70;99.90;;;;;;5032671;28;20495;-44
2023/12/09 05:33:56;;;;;;;3.90;1.75;;;10.70;99.90;;;;;;5033543;28;20022;-43
2023/12/09 05:36:21;;;;;;;2.47;1.70;;;10.70;99.90;;;;;;5033919;28;20033;-43
2023/12/09 05:38:47;;;;;;;2.08;1.42;;;10.70;99.90;;;;;;5031666;28;20025;-44
2023/12/09 05:41:13;;;;;;;2.05;1.50;;;10.70;99.90;;;;;;5032724;28;20105;-44
2023/12/09 05:43:39;;;;;;;2.35;1.55;;;10.70;99.90;;;;;;5032549;28;20112;-44
2023/12/09 05:46:05;;;;;;;2.20;1.50;;;10.70;99.90;;;;;;5032561;28;20709;-44
2023/12/09 05:48:34;;;;;;;2.30;1.67;;;10.70;99.90;;;;;;5033252;28;20032;-43
2023/12/09 05:51:01;;;;;;;2.15;1.65;;;10.60;99.90;;;;;;5032379;28;20026;-43
2023/12/09 05:53:26;;;;;;;2.70;1.77;;;10.60;99.90;;;;;;5033116;28;20104;-44
2023/12/09 05:55:52;;;;;;;2.55;1.27;;;10.70;99.90;;;;;;5033055;28;20109;-44
2023/12/09 05:58:18;;;;;;;2.85;1.77;;;10.60;99.90;;;;;;5032846;28;20032;-44
2023/12/09 06:00:44;;;;;;;1.65;1.30;;;10.60;99.90;;;;;;5031770;28;20068;-43
2023/12/09 06:03:10;;;;;;;2.28;1.73;;;10.60;99.90;;;;;;5032391;28;20021;-44
2023/12/09 06:05:36;;;;;;;2.13;1.58;;;10.70;99.90;;;;;;5032005;28;20091;-44
2023/12/09 06:08:01;;;;;;;2.15;1.52;;;10.60;99.90;;;;;;5032244;28;20503;-44
2023/12/09 06:10:27;;;;;;;2.55;1.67;;;10.60;99.90;;;;;;5032366;28;20025;-43
2023/12/09 06:12:53;;;;;;;2.28;1.50;;;10.60;99.90;;;;;;5030644;28;20029;-44
2023/12/09 06:15:18;;;;;;;2.45;1.40;;;10.60;99.90;;;;;;5033132;28;20104;-44
2023/12/09 06:17:44;;;;;;;2.58;1.60;;;10.60;99.90;;;;;;5033089;28;20025;-44
2023/12/09 06:20:10;;;;;;;2.90;1.60;;;10.60;99.90;;;;;;5031889;28;20468;-44
2023/12/09 06:22:36;;;;;;;2.60;1.67;;;10.60;99.90;;;;;;5031832;28;20045;-44
2023/12/09 06:25:02;;;;;;;2.15;1.48;;;10.60;99.90;;;;;;5032032;28;20096;-44
2023/12/09 06:27:27;;;;;;;2.08;1.65;;;10.60;99.90;;;;;;5031926;28;20679;-43
2023/12/09 06:29:53;;;;;;;3.45;1.50;;;10.60;99.90;;;;;;5031521;28;20471;-44
2023/12/09 06:32:18;;;;;;;1.58;1.45;;;10.60;99.90;;;;;;5032135;28;20037;-44
2023/12/09 06:34:44;;;;;;;3.20;1.40;;;10.60;99.90;;;;;;5032828;28;20107;-43
2023/12/09 06:37:10;;;;;;;1.83;1.38;;;10.60;99.90;;;;;;5032431;28;20501;-44
2023/12/09 06:39:36;;;;;;;2.10;1.45;;;10.60;99.90;;;;;;5032314;28;20036;-44
2023/12/09 06:42:02;;;;;;;1.42;1.27;;;10.50;99.90;;;;;;5032003;28;20041;-44
2023/12/09 06:44:27;;;;;;;3.35;1.77;;;10.50;99.90;;;;;;5031849;28;20032;-44
2023/12/09 06:46:53;;;;;;;3.15;1.40;;;10.60;99.90;;;;;;5031544;28;20380;-44
2023/12/09 06:49:19;;;;;;;2.72;1.33;;;10.60;99.90;;;;;;5032012;28;20026;-44
2023/12/09 06:51:45;;;;;;;2.25;1.50;;;10.60;99.90;;;;;;5032236;28;20396;-43
2023/12/09 06:54:11;;;;;;;1.75;1.25;;;10.60;99.90;;;;;;5031434;28;20080;-44
2023/12/09 06:56:37;;;;;;;2.65;1.30;;;10.50;99.90;;;;;;5031354;28;20023;-43
2023/12/09 06:59:03;;;;;;;1.60;1.20;;;10.50;99.90;;;;;;5031132;28;20026;-44
2023/12/09 07:01:28;;;;;;;2.55;1.48;;;10.50;99.90;;;;;;5031268;28;20083;-43
2023/12/09 07:03:55;;;;;;;1.70;1.33;;;10.50;99.90;;;;;;5031818;28;20029;-43
2023/12/09 07:06:22;;;;;;;2.42;1.40;;;10.50;99.90;;;;;;5031263;28;20619;-44
2023/12/09 07:08:47;;;;;;;2.83;1.60;;;10.50;99.90;;;;;;5031184;28;20040;-44
2023/12/09 07:11:13;;;;;;;1.63;1.20;;;10.50;99.90;;;;;;5031503;28;20387;-44
2023/12/09 07:13:39;;;;;;;2.17;1.30;;;10.50;99.90;;;;;;5033531;28;20063;-44
2023/12/09 07:16:09;;;;;;;1.88;1.40;;;10.50;99.90;;;;;;5035891;28;20075;-44
2023/12/09 07:18:35;;;;;;;1.55;1.20;;;10.50;99.90;;;;;;5035140;28;20025;-44
2023/12/09 07:21:01;;;;;;;3.10;1.58;;;10.50;99.90;;;;;;5035126;28;20036;-44
2023/12/09 07:23:27;;;;;;;1.60;1.20;;;10.50;99.90;;;;;;5035052;28;20033;-42
2023/12/09 07:25:52;;;;;;;2.20;1.40;;;10.50;99.90;;;;;;5034987;28;20028;-44
2023/12/09 07:28:18;;;;;;;1.98;1.20;;;10.50;99.90;;;;;;5035175;28;20029;-44
2023/12/09 07:30:44;;;;;;;2.83;1.10;;;10.50;99.90;;;;;;5035589;28;20029;-44
2023/12/09 07:33:09;;;;;;;1.88;1.13;;;10.50;99.90;;;;;;5035012;28;20061;-44
2023/12/09 07:35:35;;;;;;;1.73;1.20;;;10.50;99.90;;;;;;5035731;28;20033;-44
2023/12/09 07:38:00;;;;;;;2.25;1.40;;;10.60;99.90;;;;;;5034945;28;20021;-44
2023/12/09 07:40:26;;;;;;;3.17;1.50;;;10.60;99.90;;;;;;5034791;28;20543;-44
2023/12/09 07:42:52;;;;;;;1.83;1.10;;;10.60;99.90;;;;;;5034773;28;20022;-44
2023/12/09 07:45:17;;;;;;;1.75;1.30;;;10.70;99.90;;;;;;5035676;28;20064;-43
2023/12/09 07:47:43;;;;;;;2.35;1.10;;;10.70;99.90;;;;;;5034627;28;20463;-44
2023/12/09 07:50:10;;;;;;;1.83;1.20;;;10.70;99.90;;;;;;5034742;28;20079;-44
2023/12/09 07:52:35;;;;;;;2.08;1.30;;;10.70;99.90;;;;;;5034569;28;20391;-44
2023/12/09 07:55:01;;;;;;;1.30;1.15;;;10.80;99.90;;;;;;5035223;28;20284;-44
2023/12/09 07:57:26;;;;;;;3.15;1.20;;;10.80;99.90;;;;;;5034546;28;20036;-44
2023/12/09 07:59:52;;;;;;;2.28;1.05;;;10.90;99.90;;;;;;5034405;28;20021;-44
2023/12/09 08:02:18;;;;;;;1.65;1.00;;;10.90;99.90;;;;;;5034904;28;20025;-43
2023/12/09 08:04:43;;;;;;;1.90;1.20;;;11.00;99.90;;;;;;5034462;28;20033;-44
2023/12/09 08:07:09;;;;;;;1.60;1.23;;;11.00;99.90;;;;;;5035136;28;20045;-44
2023/12/09 08:09:35;;;;;;;1.25;0.95;;;11.00;99.90;;;;;;5034551;28;20025;-43
2023/12/09 08:12:01;;;;;;;1.75;1.27;;;11.00;99.90;;;;;;5017058;28;20037;-44
2023/12/09 08:14:26;;;;;;;1.95;1.27;;;11.10;99.90;;;;;;5041515;28;20603;-44
2023/12/09 08:16:52;;;;;;;1.42;1.20;;;11.10;99.90;;;;;;5035627;28;20021;-44
2023/12/09 08:19:18;;;;;;;2.28;1.55;;;11.20;99.90;;;;;;5034393;28;20029;-43
2023/12/09 08:21:43;;;;;;;1.75;1.30;;;11.20;99.90;;;;;;5034853;28;20028;-44
2023/12/09 08:24:09;;;;;;;2.78;1.33;;;11.20;99.90;;;;;;5034668;28;20052;-43
2023/12/09 08:26:36;;;;;;;2.35;1.40;;;11.20;99.90;;;;;;5034783;28;20032;-44
2023/12/09 08:29:04;;;;;;;1.48;1.27;;;11.30;99.90;;;;;;5033944;28;20052;-44
2023/12/09 08:31:30;;;;;;;1.88;1.15;;;11.30;99.90;;;;;;5034976;28;20030;-44
2023/12/09 08:33:56;;;;;;;2.08;1.20;;;11.30;99.80;;;;;;5034065;28;20033;-44
2023/12/09 08:36:22;;;;;;;2.83;1.10;;;11.40;99.80;;;;;;5033716;28;20472;-44
2023/12/09 08:38:48;;;;;;;3.00;1.40;;;11.40;99.80;;;;;;5033751;28;20487;-44
2023/12/09 08:41:13;;;;;;;3.08;1.38;;;11.40;99.70;;;;;;5033767;28;20036;-44
2023/12/09 08:43:39;;;;;;;1.77;1.33;;;11.50;99.70;;;;;;5033768;28;20479;-42
2023/12/09 08:46:05;;;;;;;1.67;1.20;;;11.50;99.60;;;;;;5033524;28;20060;-44
2023/12/09 08:48:30;;;;;;;2.03;1.20;;;11.60;99.60;;;;;;5034201;28;20021;-44
2023/12/09 08:50:56;;;;;;;1.60;1.00;;;11.60;99.50;;;;;;5033311;28;20030;-44
2023/12/09 08:53:21;;;;;;;1.98;1.30;;;11.60;99.50;;;;;;5033541;28;20432;-44
2023/12/09 08:55:47;;;;;;;1.80;1.30;;;11.60;99.40;;;;;;5033988;28;20029;-44
2023/12/09 08:58:13;;;;;;;1.38;1.10;;;11.70;99.40;;;;;;5033392;28;20025;-43
2023/12/09 09:00:39;;;;;;;2.28;1.40;;;11.80;99.30;;;;;;5033314;28;20112;-43
2023/12/09 09:03:04;;;;;;;2.42;1.45;;;11.80;99.20;;;;;;5033336;28;20480;-44
2023/12/09 09:05:30;;;;;;;2.08;1.20;;;11.90;99.20;;;;;;5033076;28;20037;-44
2023/12/09 09:07:56;;;;;;;2.78;1.02;;;11.90;99.10;;;;;;5033246;28;20025;-44
2023/12/09 09:10:22;;;;;;;1.70;1.27;;;11.90;99.10;;;;;;5033483;28;20017;-44
2023/12/09 09:12:48;;;;;;;1.85;1.20;;;12.00;99.10;;;;;;5033549;28;20033;-43
2023/12/09 09:15:15;;;;;;;2.15;1.30;;;12.10;99.00;;;;;;5033603;28;20072;-44
2023/12/09 09:17:41;;;;;;;1.30;1.00;;;12.10;99.00;;;;;;5033325;28;20020;-44
2023/12/09 09:20:07;;;;;;;1.42;1.13;;;12.10;98.90;;;;;;5033940;28;20108;-44
2023/12/09 09:22:33;;;;;;;1.20;1.00;;;12.10;98.80;;;;;;5033633;28;20549;-44
2023/12/09 09:24:59;;;;;;;1.65;1.20;;;12.20;98.70;;;;;;5033342;28;20511;-44
2023/12/09 09:27:25;;;;;;;1.85;1.40;;;12.20;98.70;;;;;;5033519;28;20165;-43
2023/12/09 09:29:51;;;;;;;1.85;1.20;;;12.30;98.70;;;;;;5032697;28;20476;-43
2023/12/09 09:32:17;;;;;;;1.70;1.15;;;12.40;98.60;;;;;;5032213;28;20029;-43
2023/12/09 09:34:43;;;;;;;1.92;1.10;;;12.40;98.60;;;;;;5033104;28;20409;-44
2023/12/09 09:37:08;;;;;;;1.48;1.13;;;12.40;98.50;;;;;;5033210;28;20152;-44
2023/12/09 09:39:35;;;;;;;2.08;1.40;;;12.50;98.50;;;;;;5033019;28;20087;-44
2023/12/09 09:42:06;;;;;;;1.92;1.23;;;12.50;98.70;;;;;;5032615;28;20369;-44
2023/12/09 09:44:37;;;;;;;1.40;1.00;;;12.60;98.30;;;;;;5032760;28;20029;-44
2023/12/09 09:47:05;;;;;;;2.10;1.38;;;12.60;98.30;;;;;;5033578;28;20028;-44
2023/12/09 09:49:33;;;;;;;1.33;1.08;;;12.60;98.30;;;;;;5032329;28;20522;-44
2023/12/09 09:52:01;;;;;;;1.67;1.10;;;12.60;98.20;;;;;;5032390;28;20032;-45
2023/12/09 09:54:28;;;;;;;1.58;1.20;;;12.70;98.20;;;;;;5032390;28;20518;-44
2023/12/09 09:56:58;;;;;;;2.05;1.10;;;12.70;98.20;;;;;;5032656;28;20039;-43
2023/12/09 09:59:24;;;;;;;1.77;1.20;;;12.70;98.10;;;;;;5032262;28;20107;-44
2023/12/09 10:01:50;;;;;;;1.35;0.95;;;12.80;98.10;;;;;;5032213;28;20040;-44
2023/12/09 10:04:16;;;;;;;1.50;1.20;;;12.80;98.00;;;;;;5033038;28;20037;-44
2023/12/09 10:06:43;;;;;;;1.95;0.98;;;12.90;98.00;;;;;;5032693;28;20515;-43
2023/12/09 10:09:09;;;;;;;1.55;1.02;;;12.90;98.30;;;;;;5032019;28;20064;-44
2023/12/09 10:11:35;;;;;;;2.67;1.27;;;13.00;97.90;;;;;;5031813;28;20049;-44
2023/12/09 10:14:00;;;;;;;1.85;1.17;;;13.00;97.80;;;;;;5033121;28;20096;-43
2023/12/09 10:16:26;;;;;;;2.28;1.40;;;13.00;97.70;;;;;;5032672;28;20025;-44
2023/12/09 10:18:52;;;;;;;1.88;1.20;;;13.10;97.70;;;;;;5031946;28;20111;-44
2023/12/09 10:21:17;;;;;;;2.10;1.50;;;13.10;97.60;;;;;;5031819;28;20021;-44
2023/12/09 10:23:45;;;;;;;1.52;1.17;;;13.10;97.50;;;;;;5031850;28;20048;-44
2023/12/09 10:26:12;;;;;;;1.83;1.08;;;13.20;97.40;;;;;;5033197;28;20116;-44
2023/12/09 10:28:38;;;;;;;1.92;1.00;;;13.30;97.40;;;;;;5031672;28;20025;-44
2023/12/09 10:31:04;;;;;;;1.67;1.23;;;13.20;97.30;;;;;;5031655;28;20086;-44
2023/12/09 10:33:32;;;;;;;2.17;1.40;;;13.30;97.30;;;;;;5031801;28;20045;-44
2023/12/09 10:36:00;;;;;;;2.25;1.52;;;13.40;97.20;;;;;;5030476;28;20021;-44
2023/12/09 10:38:30;;;;;;;1.42;1.25;;;13.40;97.10;;;;;;5032322;28;20025;-43
2023/12/09 10:40:57;;;;;;;1.85;1.40;;;13.40;97.10;;;;;;5032674;28;20094;-44
2023/12/09 10:43:24;;;;;;;1.52;1.10;;;13.40;97.10;;;;;;5032591;28;20155;-42
2023/12/09 10:45:49;;;;;;;1.80;1.25;;;13.50;97.10;;;;;;5032484;28;20030;-44
2023/12/09 10:48:15;;;;;;;1.92;1.30;;;13.50;97.00;;;;;;5032113;28;20037;-44
2023/12/09 10:50:44;;;;;;;1.80;1.45;;;13.50;96.90;;;;;;5031966;28;20114;-44
2023/12/09 10:53:10;;;;;;;2.22;1.35;;;13.50;96.90;;;;;;5032304;28;20036;-43
2023/12/09 10:55:36;;;;;;;2.20;1.33;;;13.60;96.90;;;;;;5032042;28;20030;-43
2023/12/09 10:58:04;;;;;;;1.13;0.88;;;13.60;96.80;;;;;;5032251;28;20101;-44
2023/12/09 11:00:32;;;;;;;1.77;1.30;;;13.60;96.80;;;;;;5032717;28;20109;-43
2023/12/09 11:02:58;;;;;;;2.15;1.40;;;13.70;96.70;;;;;;5032456;28;20108;-44
2023/12/09 11:05:25;;;;;;;2.15;1.17;;;13.70;96.70;;;;;;5031077;28;20032;-44
2023/12/09 11:07:51;;;;;;;1.85;1.30;;;13.70;96.90;;;;;;5031764;28;20018;-44
2023/12/09 11:10:19;;;;;;;1.58;1.30;;;13.80;96.60;;;;;;5032770;28;20029;-43
2023/12/09 11:12:47;;;;;;;1.75;1.10;;;13.80;96.50;;;;;;5032215;28;20033;-44
2023/12/09 11:15:13;;;;;;;2.03;1.48;;;13.80;96.50;;;;;;5031801;28;20037;-44
2023/12/09 11:17:40;;;;;;;2.00;1.17;;;13.80;96.40;;;;;;5032082;28;20029;-44
2023/12/09 11:20:18;;;;;;;1.90;1.42;;;13.80;96.40;;;;;;5031348;28;20411;-44
2023/12/09 11:22:45;;;;;;;2.45;1.52;;;13.90;96.40;;;;;;5031846;28;20033;-44
2023/12/09 11:25:18;;;;;;;1.58;1.15;;;13.90;96.30;;;;;;5032258;28;20029;-45
2023/12/09 11:27:45;;;;;;;2.40;1.30;;;13.90;96.30;;;;;;5032087;28;20026;-44
2023/12/09 11:30:33;;;;;;;2.10;1.20;;;13.90;96.20;;;;;;5031547;28;20034;-44
2023/12/09 11:32:59;;;;;;;2.28;1.55;;;13.90;96.20;;;;;;5030926;28;20108;-44
2023/12/09 11:35:26;;;;;;;2.38;1.42;;;14.00;96.20;;;;;;5030997;28;20106;-44
2023/12/09 11:37:54;;;;;;;1.40;1.27;;;14.00;96.10;;;;;;5031798;28;20026;-44
2023/12/09 11:40:21;;;;;;;1.33;1.10;;;14.00;96.10;;;;;;5031595;28;20013;-43
2023/12/09 11:42:48;;;;;;;1.92;1.50;;;14.00;96.10;;;;;;5030953;28;20030;-44
2023/12/09 11:45:14;;;;;;;1.65;1.20;;;14.10;96.10;;;;;;5030819;28;20030;-44
2023/12/09 11:47:41;;;;;;;1.73;1.35;;;14.10;96.00;;;;;;5031308;28;20025;-44
2023/12/09 11:50:10;;;;;;;1.55;1.15;;;14.00;95.90;;;;;;5031917;28;20026;-44
2023/12/09 11:52:35;;;;;;;2.47;1.52;;;14.10;95.90;;;;;;5030806;28;20065;-44
2023/12/09 11:55:03;;;;;;;1.55;1.30;;;14.10;95.90;;;;;;5030879;28;20103;-44
2023/12/09 11:57:30;;;;;;;1.88;1.30;;;14.10;95.90;;;;;;5031007;28;20491;-44
2023/12/09 11:59:56;;;;;;;1.88;1.40;;;14.10;95.90;;;;;;5034219;28;20025;-44
2023/12/09 12:02:22;;;;;;;1.60;1.30;;;14.10;95.90;;;;;;5035731;28;20035;-44
2023/12/09 12:04:47;;;;;;;1.90;1.27;;;14.10;95.80;;;;;;5034931;28;20030;-44
2023/12/09 12:07:13;;;;;;;1.52;1.15;;;14.10;95.80;;;;;;5034737;28;20263;-43
2023/12/09 12:09:39;;;;;;;2.05;1.58;;;14.20;95.80;;;;;;5035745;28;20434;-44
2023/12/09 12:12:08;;;;;;;1.58;1.33;;;14.20;95.80;;;;;;5035350;28;20439;-44
2023/12/09 12:14:35;;;;;;;2.60;1.50;;;14.20;95.80;;;;;;5035009;28;20021;-43
2023/12/09 12:17:01;;;;;;;2.08;1.50;;;14.20;95.80;;;;;;5034908;28;20017;-44
2023/12/09 12:19:27;;;;;;;1.70;1.30;;;14.20;95.70;;;;;;5035465;28;20104;-44
2023/12/09 12:21:54;;;;;;;2.22;1.48;;;14.20;95.70;;;;;;5035089;28;20789;-44
2023/12/09 12:24:20;;;;;;;1.67;1.38;;;14.20;95.70;;;;;;5034561;28;20079;-44
2023/12/09 12:26:46;;;;;;;1.60;1.15;;;14.20;95.70;;;;;;5033896;28;20029;-43
2023/12/09 12:29:18;;;;;;;1.60;1.27;;;14.20;95.70;;;;;;5034325;28;20096;-44
2023/12/09 12:31:50;;;;;;;2.05;1.50;;;14.20;95.60;;;;;;5034060;28;20025;-44
2023/12/09 12:34:19;;;;;;;1.75;1.20;;;14.20;95.60;;;;;;5035078;28;20031;-44
2023/12/09 12:36:46;;;;;;;2.20;1.52;;;14.30;95.70;;;;;;5034083;28;20573;-44
2023/12/09 12:39:13;;;;;;;1.95;1.40;;;14.20;95.60;;;;;;5034237;28;20368;-44
2023/12/09 12:41:39;;;;;;;1.80;1.33;;;14.30;95.60;;;;;;5034373;28;20033;-44
2023/12/09 12:44:05;;;;;;;2.13;1.58;;;14.30;95.60;;;;;;5034446;28;20033;-44